This is the latest recevied weather packets stored in our database for station/object VU3HGG-WX. If no packets are shown the sender has not sent any weather packets the latest 10 day(s).
| Time | Temp. | Humidity | Pressure | Rain* | Wind** | Luminosity | Snow |
|---|---|---|---|---|---|---|---|
| 1788011487 | 24.44° C | 76% | 910.1 hPa | - | - | - | - |
| 1788010887 | 23.89° C | 76% | 909.9 hPa | - | - | - | - |
| 1788010286 | 23.89° C | 76% | 909.8 hPa | - | - | - | - |
| 1788009687 | 23.89° C | 76% | 909.8 hPa | - | - | - | - |
| 1788009087 | 24.44° C | 75% | 909.7 hPa | - | - | - | - |
| 1788008486 | 24.44° C | 75% | 909.7 hPa | - | - | - | - |
| 1788007886 | 24.44° C | 75% | 909.7 hPa | - | - | - | - |
| 1788007287 | 24.44° C | 75% | 909.8 hPa | - | - | - | - |
| 1788006687 | 24.44° C | 75% | 910 hPa | - | - | - | - |
| 1788006086 | 23.33° C | 77% | 910.1 hPa | - | - | - | - |
| 1788005487 | 22.78° C | 80% | 910.1 hPa | - | - | - | - |
| 1788004886 | 22.78° C | 79% | 909.9 hPa | - | - | - | - |
| 1788004287 | 23.89° C | 78% | 909.4 hPa | - | - | - | - |
| 1788003687 | 25.56° C | 64% | 908.5 hPa | - | - | - | - |
| 1788003148 | 25.56° C | 65% | 908.4 hPa | - | - | - | - |
| 1788002548 | 25.56° C | 67% | 908.4 hPa | - | - | - | - |
| 1788001948 | 25.56° C | 68% | 908.4 hPa | - | - | - | - |
| 1788001348 | 25.56° C | 67% | 908.4 hPa | - | - | - | - |
| 1788000748 | 25.56° C | 68% | 908.4 hPa | - | - | - | - |
| 1788000148 | 25.56° C | 68% | 908.4 hPa | - | - | - | - |
| 1787999548 | 25.56° C | 70% | 908.3 hPa | - | - | - | - |
| 1787998948 | 25.56° C | 68% | 908.4 hPa | - | - | - | - |
| 1787998348 | 26.67° C | 59% | 908.3 hPa | - | - | - | - |
| 1787998179 | 26.67° C | 59% | 908.3 hPa | - | - | - | - |
| 1787997579 | 26.67° C | 60% | 908.2 hPa | - | - | - | - |
* Rain since midnight (hover to see other rain measurements)
** Current wind speed in m/s (hover to see current wind gust speed)